Time;durP1;ratioP1;P1;durP2;ratioP2;P2;SDS_P1;SDS_P2;PMS_P1;PMS_P2;Temp;Humidity;BMP_temperature;BMP_pressure;BME280_temperature;BME280_humidity;BME280_pressure;Samples;Min_cycle;Max_cycle;Signal;HPM_P1;HPM_P2
2021/12/16 00:04:21;;;;;;;17.20;11.47;;;;;;;5.41;100.00;99919.06;5100180;28;20293;-63
2021/12/16 00:09:29;;;;;;;17.73;12.13;;;;;;;5.38;100.00;99924.34;5109027;28;20397;-63
2021/12/16 00:33:58;;;;;;;13.70;9.10;;;;;;;5.30;100.00;99907.91;5113468;28;20230;-63
2021/12/16 00:36:26;;;;;;;13.97;10.00;;;;;;;5.30;100.00;99909.66;5111217;28;20295;-63
2021/12/16 00:38:53;;;;;;;14.13;9.77;;;;;;;5.32;100.00;99906.13;5114111;28;20216;-63
2021/12/16 00:41:19;;;;;;;14.53;10.20;;;;;;;5.30;100.00;99910.53;5114171;28;20336;-63
2021/12/16 00:43:51;;;;;;;13.53;9.57;;;;;;;5.30;100.00;99915.78;5114282;28;20583;-63
2021/12/16 00:46:32;;;;;;;14.40;9.47;;;;;;;5.26;100.00;99913.25;5102922;28;20220;-63
2021/12/16 00:49:17;;;;;;;14.10;9.57;;;;;;;5.24;100.00;99902.78;5104207;28;20271;-63
2021/12/16 00:54:29;;;;;;;12.10;8.90;;;;;;;5.24;100.00;99908.03;5111484;28;20211;-62
2021/12/16 00:57:01;;;;;;;12.43;8.70;;;;;;;5.24;100.00;99908.03;5113720;28;20227;-63
2021/12/16 00:59:33;;;;;;;13.57;9.73;;;;;;;5.23;100.00;99913.31;5111775;28;20339;-63
2021/12/16 01:02:11;;;;;;;13.60;9.77;;;;;;;5.21;100.00;99910.75;5110689;28;20248;-63
2021/12/16 01:35:33;;;;;;;14.57;9.77;;;;;;;5.21;100.00;99920.34;5108751;28;20338;-63
2021/12/16 01:41:28;;;;;;;15.03;10.40;;;;;;;5.19;100.00;99925.59;5111667;28;20223;-63
2021/12/16 01:49:36;;;;;;;16.97;11.53;;;;;;;5.19;100.00;99933.47;5097048;28;20238;-63
2021/12/16 01:52:39;;;;;;;16.67;10.77;;;;;;;5.18;100.00;99936.09;5103293;28;20272;-63
2021/12/16 01:55:07;;;;;;;16.60;11.33;;;;;;;5.17;100.00;99934.38;5102806;28;20215;-64
2021/12/16 01:57:40;;;;;;;15.83;11.23;;;;;;;5.18;100.00;99934.38;5110489;28;20212;-63
2021/12/16 02:00:11;;;;;;;16.30;11.53;;;;;;;5.21;100.00;99931.69;5112396;28;20216;-63
2021/12/16 02:02:44;;;;;;;16.27;11.03;;;;;;;5.21;100.00;99934.31;5112181;28;20208;-63
2021/12/16 02:05:34;;;;;;;17.77;11.63;;;;;;;5.23;100.00;99931.66;5109513;28;20704;-63
2021/12/16 02:27:32;;;;;;;18.27;12.43;;;;;;;5.21;100.00;99926.47;5104681;28;20698;-64
2021/12/16 02:30:41;;;;;;;15.57;10.97;;;;;;;5.20;100.00;99927.34;5125596;27;20339;-64
2021/12/16 02:33:13;;;;;;;16.57;11.90;;;;;;;5.15;100.00;99918.72;5122970;28;20330;-63
2021/12/16 02:35:45;;;;;;;17.60;12.07;;;;;;;5.16;100.00;99912.56;5125787;28;20288;-64
2021/12/16 02:38:15;;;;;;;18.10;12.00;;;;;;;5.17;100.00;99914.31;5123342;27;20213;-64
2021/12/16 02:40:43;;;;;;;18.60;13.27;;;;;;;5.19;100.00;99917.75;5121438;28;20211;-64
2021/12/16 02:43:25;;;;;;;20.27;12.63;;;;;;;5.18;100.00;99913.41;5121792;28;20212;-64
2021/12/16 02:48:38;;;;;;;20.20;13.60;;;;;;;5.19;100.00;99917.75;5121733;28;20296;-64
2021/12/16 02:51:07;;;;;;;19.10;13.07;;;;;;;5.16;100.00;99907.34;5125452;28;20218;-64
2021/12/16 02:53:38;;;;;;;19.00;12.80;;;;;;;5.17;100.00;99914.31;5125492;28;20218;-64
2021/12/16 02:56:05;;;;;;;19.10;12.70;;;;;;;5.20;100.00;99908.97;5118858;28;20215;-64
2021/12/16 02:58:32;;;;;;;20.40;12.27;;;;;;;5.19;100.00;99912.50;5124257;28;20221;-64
2021/12/16 03:01:04;;;;;;;17.97;12.50;;;;;;;5.20;100.00;99913.38;5125407;27;20216;-64
2021/12/16 03:03:31;;;;;;;19.00;12.77;;;;;;;5.19;100.00;99912.50;5124938;28;20216;-64
2021/12/16 03:05:59;;;;;;;18.70;12.93;;;;;;;5.18;100.00;99916.03;5120981;28;20208;-64
2021/12/16 03:08:26;;;;;;;21.03;13.27;;;;;;;5.22;100.00;99916.81;5123076;28;20224;-64
2021/12/16 03:11:09;;;;;;;18.97;12.47;;;;;;;5.23;100.00;99919.41;5124828;28;20215;-64
2021/12/16 03:13:42;;;;;;;18.07;12.17;;;;;;;5.23;100.00;99915.91;5122342;27;20726;-64
2021/12/16 03:16:21;;;;;;;18.10;12.60;;;;;;;5.21;100.00;99921.22;5121480;28;20707;-64
2021/12/16 03:18:53;;;;;;;16.97;12.77;;;;;;;5.24;100.00;99915.91;5124629;27;20214;-64
2021/12/16 03:21:26;;;;;;;18.60;12.63;;;;;;;5.20;100.00;99908.97;5123509;28;20219;-64
2021/12/16 03:24:10;;;;;;;17.90;12.20;;;;;;;5.23;100.00;99919.41;5113315;28;20222;-64
2021/12/16 03:29:53;;;;;;;17.20;11.87;;;;;;;5.22;100.00;99907.22;5108045;28;20234;-64
2021/12/16 03:35:26;;;;;;;18.27;12.17;;;;;;;5.20;100.00;99914.22;5107996;28;20214;-64
2021/12/16 03:37:54;;;;;;;19.73;13.00;;;;;;;5.18;100.00;99921.25;5109458;28;20269;-64
2021/12/16 03:40:21;;;;;;;18.13;12.10;;;;;;;5.15;100.00;99916.09;5110520;28;20223;-65
2021/12/16 03:42:52;;;;;;;18.43;12.57;;;;;;;5.13;100.00;99917.84;5110824;28;20212;-64
2021/12/16 03:48:12;;;;;;;17.33;11.90;;;;;;;5.12;100.00;99924.00;5093161;28;20210;-64
2021/12/16 03:50:38;;;;;;;15.83;11.43;;;;;;;5.10;100.00;99922.31;5110644;28;20224;-64
2021/12/16 03:53:06;;;;;;;16.27;11.47;;;;;;;5.09;100.00;99921.47;5106685;28;20234;-64
2021/12/16 03:55:33;;;;;;;18.07;12.60;;;;;;;5.06;100.00;99925.91;5109149;28;20210;-64
2021/12/16 03:58:01;;;;;;;15.97;11.13;;;;;;;5.09;100.00;99918.84;5110159;28;20212;-64
2021/12/16 04:00:30;;;;;;;16.27;11.57;;;;;;;5.08;100.00;99914.47;5108449;28;20683;-64
2021/12/16 04:02:58;;;;;;;18.33;11.73;;;;;;;5.09;100.00;99921.47;5103800;28;20221;-64
2021/12/16 04:05:24;;;;;;;17.97;12.27;;;;;;;5.11;100.00;99922.28;5109387;28;20224;-64
2021/12/16 04:07:52;;;;;;;17.27;11.70;;;;;;;5.13;100.00;99930.97;5103466;28;20209;-64
2021/12/16 04:10:21;;;;;;;20.33;12.83;;;;;;;5.13;100.00;99928.34;5110029;28;20286;-64
2021/12/16 04:12:50;;;;;;;18.97;12.30;;;;;;;5.12;100.00;99937.09;5103742;28;20607;-64
2021/12/16 04:15:18;;;;;;;18.90;12.53;;;;;;;5.08;100.00;99930.19;5109413;28;20223;-64
2021/12/16 04:17:46;;;;;;;20.97;12.13;;;;;;;5.11;100.00;99940.63;5110122;28;20253;-64
2021/12/16 04:20:15;;;;;;;18.23;11.93;;;;;;;5.14;100.00;99937.94;5109683;28;20214;-64
2021/12/16 04:22:43;;;;;;;19.17;12.17;;;;;;;5.13;100.00;99936.22;5106200;28;20570;-64
2021/12/16 04:25:14;;;;;;;18.40;12.37;;;;;;;5.14;100.00;99935.31;5109905;28;20215;-64
2021/12/16 04:27:44;;;;;;;18.50;12.17;;;;;;;5.11;100.00;99935.38;5108314;28;20224;-64
2021/12/16 04:30:14;;;;;;;20.87;13.83;;;;;;;5.13;100.00;99933.59;5108392;28;20224;-64
2021/12/16 04:32:43;;;;;;;23.17;13.77;;;;;;;5.12;100.00;99931.03;5106637;28;20259;-64
2021/12/16 04:35:10;;;;;;;18.90;12.73;;;;;;;5.12;100.00;99931.88;5108798;28;20348;-64
2021/12/16 04:37:37;;;;;;;22.03;13.93;;;;;;;5.12;100.00;99926.63;5109639;28;20577;-64
2021/12/16 04:40:07;;;;;;;23.33;14.30;;;;;;;5.12;100.00;99921.38;5107627;28;20226;-64
2021/12/16 04:42:35;;;;;;;19.40;13.10;;;;;;;5.11;100.00;99930.16;5106509;28;20300;-64
2021/12/16 04:45:02;;;;;;;22.10;13.60;;;;;;;5.15;100.00;99925.72;5109479;28;20221;-64
2021/12/16 04:47:30;;;;;;;21.73;13.83;;;;;;;5.16;100.00;99925.69;5109465;28;20218;-64
2021/12/16 04:49:58;;;;;;;21.80;14.10;;;;;;;5.16;100.00;99923.06;5107236;28;20207;-64
2021/12/16 04:52:24;;;;;;;20.67;13.73;;;;;;;5.16;100.00;99935.28;5105048;28;20248;-63
2021/12/16 04:54:51;;;;;;;20.93;13.20;;;;;;;5.15;100.00;99931.81;5109026;28;20220;-64
2021/12/16 04:57:17;;;;;;;22.17;14.13;;;;;;;5.17;100.00;99940.50;5109151;28;20216;-64
2021/12/16 04:59:44;;;;;;;20.37;13.27;;;;;;;5.17;100.00;99937.88;5107313;28;20215;-64
2021/12/16 05:02:16;;;;;;;24.30;14.20;;;;;;;5.16;100.00;99944.03;5106200;28;20229;-64
2021/12/16 05:04:44;;;;;;;22.47;14.97;;;;;;;5.13;100.00;99943.22;5109227;28;20590;-64
2021/12/16 05:07:12;;;;;;;23.23;14.70;;;;;;;5.15;100.00;99952.78;5109024;28;20254;-64
2021/12/16 05:10:03;;;;;;;26.90;15.40;;;;;;;5.09;100.00;99955.53;5106261;28;20211;-64
2021/12/16 05:12:33;;;;;;;23.17;14.27;;;;;;;5.11;100.00;99955.47;5088491;28;20254;-65
2021/12/16 05:14:59;;;;;;;25.33;14.37;;;;;;;5.09;100.00;99957.28;5108751;28;20220;-64
2021/12/16 05:17:30;;;;;;;25.63;14.77;;;;;;;5.08;100.00;99961.63;5106353;28;20213;-63
2021/12/16 05:19:59;;;;;;;23.00;14.27;;;;;;;5.10;100.00;99961.63;5105536;28;20266;-64
2021/12/16 05:25:21;;;;;;;24.40;15.10;;;;;;;5.11;100.00;99972.06;5107706;28;20218;-64
2021/12/16 05:27:48;;;;;;;24.30;15.13;;;;;;;5.12;100.00;99979.03;5105996;28;20227;-64
2021/12/16 05:30:15;;;;;;;24.40;14.57;;;;;;;5.11;100.00;99976.44;5108553;28;20230;-64
2021/12/16 05:32:45;;;;;;;19.73;13.13;;;;;;;5.12;100.00;99979.03;5108747;28;20611;-64
2021/12/16 05:35:14;;;;;;;22.57;14.27;;;;;;;5.14;100.00;99972.00;5106090;28;20239;-64
2021/12/16 05:37:43;;;;;;;22.93;14.63;;;;;;;5.13;100.00;99975.53;5104195;28;20600;-64
2021/12/16 05:40:11;;;;;;;25.27;13.93;;;;;;;5.13;100.00;99982.53;5108334;28;20215;-64
2021/12/16 05:42:38;;;;;;;20.80;13.87;;;;;;;5.13;100.00;99993.03;5108465;28;20216;-64
2021/12/16 05:45:06;;;;;;;22.53;14.37;;;;;;;5.14;100.00;99998.22;5104092;28;20216;-63
2021/12/16 05:47:33;;;;;;;23.90;13.97;;;;;;;5.12;100.00;100001.78;5106096;28;20224;-64
2021/12/16 05:50:00;;;;;;;22.70;14.57;;;;;;;5.11;100.00;100002.66;5108554;28;20214;-64
2021/12/16 05:52:26;;;;;;;20.30;13.40;;;;;;;5.09;100.00;100000.09;5108411;28;20239;-64
2021/12/16 05:54:54;;;;;;;21.80;13.30;;;;;;;5.11;100.00;100008.78;5105667;28;20211;-64
2021/12/16 05:57:20;;;;;;;22.83;13.50;;;;;;;5.08;100.00;100014.03;5103667;28;20215;-64
2021/12/16 05:59:47;;;;;;;19.83;13.17;;;;;;;5.09;100.00;100007.94;5108363;28;20218;-64
2021/12/16 06:02:13;;;;;;;21.37;12.80;;;;;;;5.07;100.00;100009.72;5107963;28;20221;-64
2021/12/16 06:04:40;;;;;;;19.83;13.20;;;;;;;5.07;100.00;100009.72;5106080;28;20223;-64
2021/12/16 06:07:07;;;;;;;20.43;13.17;;;;;;;5.07;100.00;100004.47;5098640;28;20219;-64
2021/12/16 06:09:34;;;;;;;19.87;12.87;;;;;;;5.07;100.00;100020.19;5107097;28;20571;-64
2021/12/16 06:12:03;;;;;;;19.47;11.93;;;;;;;5.04;100.00;100009.78;5107187;28;20249;-64
2021/12/16 06:14:45;;;;;;;18.73;12.60;;;;;;;5.09;100.00;100017.53;5106065;28;20246;-64
2021/12/16 06:28:36;;;;;;;19.90;12.37;;;;;;;5.02;100.00;100019.41;5080392;28;20218;-64
2021/12/16 06:31:03;;;;;;;20.33;12.70;;;;;;;5.00;100.00;100009.88;5107785;28;20238;-64
2021/12/16 06:33:30;;;;;;;19.80;12.90;;;;;;;5.05;100.00;100006.25;5107770;28;20235;-64
2021/12/16 06:35:57;;;;;;;20.40;13.03;;;;;;;5.08;100.00;100015.81;5105582;28;20362;-64
2021/12/16 06:38:24;;;;;;;21.83;12.80;;;;;;;5.08;100.00;100014.03;5104219;28;20212;-64
2021/12/16 06:40:52;;;;;;;20.23;13.00;;;;;;;5.05;100.00;100014.13;5107654;28;20219;-64
2021/12/16 06:43:20;;;;;;;19.77;12.50;;;;;;;5.04;100.00;100020.25;5107582;28;20218;-64
2021/12/16 06:45:51;;;;;;;20.20;12.43;;;;;;;5.00;100.00;100010.72;5107270;28;20289;-64
2021/12/16 06:48:21;;;;;;;20.37;12.60;;;;;;;5.05;100.00;100008.00;5104065;28;20292;-64
2021/12/16 06:50:53;;;;;;;19.47;11.90;;;;;;;5.03;100.00;100013.28;5086489;28;20215;-64
2021/12/16 06:53:26;;;;;;;21.73;13.30;;;;;;;5.06;100.00;100015.84;5107799;28;20327;-64
2021/12/16 06:56:01;;;;;;;20.53;12.33;;;;;;;5.06;100.00;100021.09;5105285;28;20212;-64
2021/12/16 06:58:33;;;;;;;19.87;11.90;;;;;;;5.05;100.00;100024.59;5106514;28;20226;-65
2021/12/16 07:01:11;;;;;;;17.77;11.67;;;;;;;5.02;100.00;100019.41;5111784;28;20217;-64
2021/12/16 07:03:47;;;;;;;16.93;11.27;;;;;;;5.02;100.00;100019.41;5108252;28;20299;-64
2021/12/16 07:06:15;;;;;;;22.00;13.77;;;;;;;5.00;100.00;100023.81;5107380;28;20677;-64
2021/12/16 07:08:42;;;;;;;18.47;11.83;;;;;;;5.05;100.00;100035.09;5111449;28;20219;-64
2021/12/16 07:11:10;;;;;;;20.07;11.53;;;;;;;5.04;100.00;100035.09;5111258;28;20294;-64
2021/12/16 07:13:40;;;;;;;18.43;11.70;;;;;;;5.08;100.00;100045.50;5108351;28;20248;-64
2021/12/16 07:16:09;;;;;;;17.90;11.50;;;;;;;5.07;100.00;100049.00;5109753;28;20215;-64
2021/12/16 07:18:35;;;;;;;20.93;12.10;;;;;;;5.06;100.00;100049.91;5111306;28;20217;-64
2021/12/16 07:21:02;;;;;;;17.53;11.50;;;;;;;5.09;100.00;100042.00;5111006;28;20224;-64
2021/12/16 07:23:29;;;;;;;22.63;11.77;;;;;;;5.10;100.00;100038.50;5107640;28;20232;-64
2021/12/16 07:25:56;;;;;;;18.57;11.53;;;;;;;5.10;100.00;100043.75;5109504;28;20582;-64
2021/12/16 07:28:23;;;;;;;18.57;11.67;;;;;;;5.09;100.00;100033.28;5109454;28;20221;-64
2021/12/16 07:30:49;;;;;;;16.63;11.27;;;;;;;5.11;100.00;100034.09;5111017;28;20208;-64
2021/12/16 07:33:17;;;;;;;19.27;11.43;;;;;;;5.10;100.00;100048.97;5107917;28;20241;-65
2021/12/16 07:35:45;;;;;;;18.57;11.57;;;;;;;5.10;100.00;100048.97;5109423;28;20217;-64
2021/12/16 07:38:12;;;;;;;19.87;12.07;;;;;;;5.09;100.00;100047.25;5110990;28;20294;-64
2021/12/16 07:40:40;;;;;;;17.83;10.83;;;;;;;5.13;100.00;100056.78;5111016;28;20238;-64
2021/12/16 07:43:25;;;;;;;18.47;11.30;;;;;;;5.12;100.00;100055.06;5096398;28;20222;-64
2021/12/16 07:45:55;;;;;;;19.67;11.83;;;;;;;5.11;100.00;100050.72;5089600;28;20217;-64
2021/12/16 07:48:25;;;;;;;18.53;11.60;;;;;;;5.15;100.00;100051.50;5110779;28;20314;-64
2021/12/16 07:50:56;;;;;;;17.40;10.97;;;;;;;5.20;100.00;100055.78;5108553;28;20215;-64
2021/12/16 07:53:23;;;;;;;17.83;11.43;;;;;;;5.20;100.00;100061.00;5106271;28;20248;-64
2021/12/16 07:55:50;;;;;;;19.63;11.27;;;;;;;5.21;100.00;100065.41;5108779;28;20212;-64
2021/12/16 07:58:19;;;;;;;19.53;11.90;;;;;;;5.24;100.00;100061.81;5107115;28;20223;-64
2021/12/16 08:00:47;;;;;;;19.03;11.80;;;;;;;5.25;100.00;100074.91;5106747;28;20220;-64
2021/12/16 08:03:15;;;;;;;18.00;11.10;;;;;;;5.27;100.00;100077.53;5105215;28;20227;-64
2021/12/16 08:05:47;;;;;;;18.30;11.57;;;;;;;5.29;100.00;100073.09;5107831;28;20218;-63
2021/12/16 08:08:15;;;;;;;17.13;11.03;;;;;;;5.30;100.00;100080.06;5094478;28;20263;-64
2021/12/16 08:10:42;;;;;;;18.77;11.27;;;;;;;5.32;100.00;100076.53;5099420;28;20683;-64
2021/12/16 08:13:09;;;;;;;17.43;11.20;;;;;;;5.31;100.00;100082.69;5101411;28;20270;-64
2021/12/16 08:15:35;;;;;;;17.90;12.50;;;;;;;5.35;100.00;100089.59;5102673;28;20220;-64
2021/12/16 08:18:02;;;;;;;16.60;11.17;;;;;;;5.38;100.00;100094.78;5098866;28;20220;-64
2021/12/16 08:20:29;;;;;;;18.23;11.53;;;;;;;5.35;100.00;100092.22;5097092;28;20217;-63
2021/12/16 08:22:56;;;;;;;17.40;10.97;;;;;;;5.37;100.00;100093.06;5101622;28;20575;-64
2021/12/16 08:25:25;;;;;;;17.37;11.20;;;;;;;5.39;100.00;100099.16;5102399;28;20333;-64
2021/12/16 08:27:52;;;;;;;16.83;10.90;;;;;;;5.38;100.00;100102.66;5098296;28;20217;-64
2021/12/16 08:30:22;;;;;;;17.50;10.50;;;;;;;5.43;100.00;100099.97;5099550;28;20213;-64
2021/12/16 08:32:49;;;;;;;16.90;10.67;;;;;;;5.45;100.00;100106.03;5101729;28;20216;-64
2021/12/16 08:35:16;;;;;;;16.03;10.47;;;;;;;5.46;100.00;100116.50;5101320;28;20328;-64
2021/12/16 08:37:43;;;;;;;17.23;10.87;;;;;;;5.45;100.00;100114.75;5098829;28;20217;-64
2021/12/16 08:40:15;;;;;;;16.50;11.00;;;;;;;5.51;100.00;100106.78;5099121;28;20214;-64
2021/12/16 08:42:42;;;;;;;18.13;11.87;;;;;;;5.56;100.00;100112.81;5100957;28;20791;-63
2021/12/16 08:45:11;;;;;;;19.00;11.53;;;;;;;5.61;100.00;100115.38;5096149;28;20217;-64
2021/12/16 08:47:38;;;;;;;18.03;10.83;;;;;;;5.62;100.00;100112.69;5096839;28;20222;-64
2021/12/16 08:50:08;;;;;;;19.07;11.50;;;;;;;5.64;100.00;100113.56;5098069;28;20582;-64
2021/12/16 08:52:34;;;;;;;17.83;11.27;;;;;;;5.67;100.00;100110.88;5102170;28;20218;-64
2021/12/16 08:55:01;;;;;;;17.80;11.63;;;;;;;5.72;100.00;100119.53;5100668;28;20240;-64
2021/12/16 08:57:29;;;;;;;19.03;12.23;;;;;;;5.73;100.00;100126.50;5093013;28;20627;-64
2021/12/16 08:59:56;;;;;;;18.37;11.73;;;;;;;5.72;100.00;100124.78;5099792;28;20575;-64
2021/12/16 09:02:23;;;;;;;17.33;11.43;;;;;;;5.70;100.00;100121.31;5102475;28;20224;-64
2021/12/16 09:04:49;;;;;;;18.80;11.53;;;;;;;5.72;100.00;100122.16;5102032;28;20208;-64
2021/12/16 09:07:17;;;;;;;17.33;11.43;;;;;;;5.76;100.00;100130.81;5099387;28;20214;-64
2021/12/16 09:09:45;;;;;;;17.30;12.30;;;;;;;5.80;100.00;100132.53;5099470;28;20584;-64
2021/12/16 09:12:37;;;;;;;16.07;11.03;;;;;;;5.78;100.00;100139.53;5101240;28;20244;-64
2021/12/16 09:15:06;;;;;;;19.83;12.50;;;;;;;5.80;100.00;100129.91;5099905;28;20236;-64
2021/12/16 09:17:33;;;;;;;19.90;11.63;;;;;;;5.84;100.00;100128.94;5099441;28;20216;-64
2021/12/16 09:19:59;;;;;;;18.13;11.90;;;;;;;5.87;100.00;100134.16;5101555;28;20241;-64
2021/12/16 09:22:27;;;;;;;17.20;11.67;;;;;;;5.86;100.00;100138.53;5101955;28;20553;-64
2021/12/16 09:24:56;;;;;;;15.90;11.07;;;;;;;5.91;100.00;100141.94;5099211;28;20210;-64
2021/12/16 09:27:23;;;;;;;16.20;10.57;;;;;;;5.95;100.00;100143.63;5099231;28;20218;-64
2021/12/16 09:29:50;;;;;;;17.67;11.30;;;;;;;6.02;100.00;100145.22;5101178;28;20255;-64
2021/12/16 09:32:18;;;;;;;18.17;11.23;;;;;;;6.09;100.00;100152.09;5100700;28;20223;-64
2021/12/16 09:34:46;;;;;;;16.13;10.63;;;;;;;6.13;100.00;100147.63;5097509;28;20248;-64
2021/12/16 09:37:13;;;;;;;18.40;12.07;;;;;;;6.14;100.00;100149.34;5097753;28;20212;-64
2021/12/16 09:39:40;;;;;;;15.67;10.87;;;;;;;6.13;100.00;100138.00;5098377;28;20224;-64
2021/12/16 09:42:09;;;;;;;16.10;11.43;;;;;;;6.18;100.00;100145.78;5100590;28;20213;-64
2021/12/16 09:44:38;;;;;;;15.77;10.47;;;;;;;6.16;100.00;100153.69;5097458;28;20675;-64
2021/12/16 09:47:09;;;;;;;18.70;11.13;;;;;;;6.19;100.00;100153.66;5097827;28;20222;-64
2021/12/16 09:49:37;;;;;;;15.27;10.80;;;;;;;6.11;100.00;100150.28;5100665;28;20217;-64
2021/12/16 09:52:06;;;;;;;16.20;10.30;;;;;;;6.12;100.00;100149.38;5099257;28;20216;-64
2021/12/16 09:54:35;;;;;;;15.53;10.57;;;;;;;6.16;100.00;100156.31;5097136;28;20253;-64
2021/12/16 09:57:03;;;;;;;16.53;11.10;;;;;;;6.17;100.00;100155.41;5097681;28;20584;-64
2021/12/16 09:59:32;;;;;;;17.70;11.00;;;;;;;6.16;100.00;100156.31;5101249;28;20214;-64
2021/12/16 10:02:01;;;;;;;16.00;11.30;;;;;;;6.19;100.00;100153.66;5098328;28;20210;-64
2021/12/16 10:04:31;;;;;;;15.23;10.20;;;;;;;6.20;100.00;100163.25;5089586;28;20217;-64
2021/12/16 10:07:03;;;;;;;14.10;10.13;;;;;;;6.21;100.00;100166.72;5096340;28;20217;-64
2021/12/16 10:09:29;;;;;;;17.27;11.47;;;;;;;6.22;100.00;100160.59;5101263;28;20217;-64
2021/12/16 10:11:59;;;;;;;18.37;10.97;;;;;;;6.24;100.00;100166.69;5097485;28;20324;-64
2021/12/16 10:14:46;;;;;;;16.03;10.73;;;;;;;6.29;100.00;100160.41;5096171;28;20252;-64
2021/12/16 10:17:25;;;;;;;16.10;10.47;;;;;;;6.34;100.00;100155.94;5090229;28;20664;-64
2021/12/16 10:19:52;;;;;;;15.83;10.37;;;;;;;6.40;100.00;100147.09;5094606;28;20665;-64
2021/12/16 10:22:25;;;;;;;16.03;11.00;;;;;;;6.45;100.00;100148.72;5090554;28;20211;-64
2021/12/16 10:24:56;;;;;;;17.30;11.97;;;;;;;6.48;100.00;100150.41;5098929;28;20226;-64
2021/12/16 10:27:25;;;;;;;14.57;10.60;;;;;;;6.51;100.00;100148.59;5099819;28;20217;-64
2021/12/16 10:29:55;;;;;;;17.60;11.03;;;;;;;6.53;100.00;100138.91;5097211;28;20231;-64
2021/12/16 10:32:34;;;;;;;16.40;10.70;;;;;;;6.60;100.00;100145.75;5095289;28;20206;-64
2021/12/16 10:35:04;;;;;;;18.73;11.57;;;;;;;6.58;100.00;100150.19;5095116;28;20729;-64
2021/12/16 10:37:35;;;;;;;15.73;10.40;;;;;;;6.53;100.00;100149.41;5100975;28;20214;-64
2021/12/16 10:40:23;;;;;;;15.00;10.47;;;;;;;6.55;100.00;100149.38;5101425;28;20687;-64
2021/12/16 10:42:50;;;;;;;16.37;10.53;;;;;;;6.53;100.00;100149.41;5085117;28;20224;-64
2021/12/16 10:45:34;;;;;;;17.13;11.20;;;;;;;6.51;100.00;100156.47;5101718;28;20221;-64
2021/12/16 10:48:15;;;;;;;14.73;10.30;;;;;;;6.48;100.00;100151.25;5101011;28;20217;-64
2021/12/16 10:51:06;;;;;;;17.43;11.70;;;;;;;6.50;100.00;100159.13;5094801;28;20214;-64
2021/12/16 10:54:12;;;;;;;16.93;10.40;;;;;;;6.45;100.00;100158.34;5100422;28;20606;-64
2021/12/16 10:56:55;;;;;;;14.93;10.37;;;;;;;6.43;100.00;100163.66;5095179;28;20213;-64
2021/12/16 10:59:27;;;;;;;17.07;11.37;;;;;;;6.47;100.00;100164.47;5098072;28;20225;-64
2021/12/16 11:02:02;;;;;;;16.40;10.17;;;;;;;6.47;100.00;100160.06;5100959;28;20211;-63
2021/12/16 11:04:33;;;;;;;15.43;10.03;;;;;;;6.51;100.00;100155.59;5094226;28;20791;-64
2021/12/16 11:07:04;;;;;;;14.33;9.50;;;;;;;6.54;100.00;100151.13;5100831;28;20217;-64
2021/12/16 11:09:43;;;;;;;15.57;9.50;;;;;;;6.56;100.00;100154.63;5100389;28;20218;-63
2021/12/16 11:12:24;;;;;;;14.97;10.30;;;;;;;6.59;100.00;100153.69;5100067;28;20249;-64
2021/12/16 11:14:54;;;;;;;13.77;9.73;;;;;;;6.61;100.00;100152.75;5097059;28;20237;-64
2021/12/16 11:17:23;;;;;;;14.67;10.20;;;;;;;6.64;100.00;100157.94;5097293;28;20297;-64
2021/12/16 11:19:56;;;;;;;15.40;10.77;;;;;;;6.67;100.00;100151.75;5098547;28;20222;-64
2021/12/16 11:22:26;;;;;;;15.13;10.03;;;;;;;6.74;100.00;100153.34;5097658;28;20210;-64
2021/12/16 11:24:54;;;;;;;14.83;10.17;;;;;;;6.77;100.00;100154.13;5095650;28;20218;-64
2021/12/16 11:27:34;;;;;;;14.53;9.33;;;;;;;6.82;100.00;100154.03;5096987;28;20695;-64
2021/12/16 11:30:28;;;;;;;13.10;9.20;;;;;;;6.88;100.00;100162.66;5094698;28;20218;-64
2021/12/16 11:33:03;;;;;;;14.57;9.17;;;;;;;6.88;100.00;100146.88;5100063;28;20275;-64
2021/12/16 11:35:36;;;;;;;13.73;9.40;;;;;;;6.92;100.00;100155.56;5100372;28;20233;-64
2021/12/16 11:38:09;;;;;;;13.63;9.50;;;;;;;6.96;100.00;100157.25;5103707;28;20213;-64
2021/12/16 11:40:57;;;;;;;13.80;9.77;;;;;;;6.99;100.00;100155.41;5098147;28;20221;-64
2021/12/16 11:43:38;;;;;;;13.77;9.43;;;;;;;7.06;100.00;100151.72;5100585;28;20218;-64
2021/12/16 11:46:14;;;;;;;13.63;8.97;;;;;;;7.07;100.00;100153.44;5101956;28;20685;-64
2021/12/16 11:48:41;;;;;;;12.93;8.93;;;;;;;7.12;100.00;100146.31;5091485;28;20220;-64
2021/12/16 11:51:10;;;;;;;15.33;9.97;;;;;;;7.18;100.00;100148.81;5098762;28;20215;-64
2021/12/16 11:53:40;;;;;;;13.43;9.30;;;;;;;7.21;100.00;100151.34;5093331;28;20218;-65
2021/12/16 11:56:10;;;;;;;12.50;9.63;;;;;;;7.29;100.00;100154.69;5100241;28;20234;-65
2021/12/16 11:58:37;;;;;;;16.37;10.10;;;;;;;7.34;100.00;100147.56;5099917;28;20637;-64
2021/12/16 12:01:15;;;;;;;13.63;9.70;;;;;;;7.34;100.00;100132.63;5093146;28;20218;-64
2021/12/16 12:03:42;;;;;;;13.97;9.90;;;;;;;7.34;100.00;100142.28;5107942;28;20586;-64
2021/12/16 12:06:20;;;;;;;14.70;9.47;;;;;;;7.38;100.00;100136.91;5096391;28;20206;-64
2021/12/16 12:08:48;;;;;;;13.30;9.00;;;;;;;7.46;100.00;100136.69;5096290;28;20224;-64
2021/12/16 12:11:18;;;;;;;13.70;9.27;;;;;;;7.51;100.00;100140.06;5098680;28;20218;-64
2021/12/16 12:13:47;;;;;;;17.13;10.20;;;;;;;7.57;100.00;100134.66;5096071;28;20711;-64
2021/12/16 12:16:18;;;;;;;13.87;10.00;;;;;;;7.63;100.00;100127.50;5096039;28;20250;-64
2021/12/16 12:18:47;;;;;;;14.03;9.90;;;;;;;7.69;100.00;100129.97;5094740;28;20585;-64
2021/12/16 12:21:22;;;;;;;14.07;10.20;;;;;;;7.76;100.00;100122.75;5097785;28;20210;-64
2021/12/16 12:23:51;;;;;;;13.07;9.17;;;;;;;7.80;100.00;100127.91;5096498;28;20585;-64
2021/12/16 12:26:20;;;;;;;12.93;8.70;;;;;;;7.84;100.00;100121.66;5095692;28;20214;-64
2021/12/16 12:28:49;;;;;;;16.07;10.13;;;;;;;7.87;100.00;100123.34;5096482;28;20221;-64
2021/12/16 12:31:18;;;;;;;13.53;9.53;;;;;;;7.93;100.00;100125.81;5084271;28;20211;-64
2021/12/16 12:33:45;;;;;;;15.20;10.00;;;;;;;7.98;100.00;100111.63;5095928;28;20211;-64
2021/12/16 12:36:13;;;;;;;12.20;9.33;;;;;;;7.98;100.00;100113.38;5095478;28;20234;-64
2021/12/16 12:38:39;;;;;;;15.67;11.00;;;;;;;7.96;100.00;100108.16;5098157;28;20210;-64
2021/12/16 12:41:06;;;;;;;15.23;10.20;;;;;;;7.91;100.00;100103.94;5111578;28;20581;-64
2021/12/16 12:43:35;;;;;;;15.13;10.53;;;;;;;7.84;100.00;100102.38;5111487;28;20209;-64
2021/12/16 12:46:02;;;;;;;16.33;10.50;;;;;;;7.80;100.00;100105.97;5109598;28;20225;-64
2021/12/16 12:48:29;;;;;;;13.27;9.57;;;;;;;7.71;100.00;100091.28;5109997;28;20215;-64
2021/12/16 12:50:58;;;;;;;15.10;9.93;;;;;;;7.66;100.00;100108.13;5111493;28;20209;-64
2021/12/16 12:53:33;;;;;;;16.43;10.97;;;;;;;7.61;100.00;100099.47;5111098;28;20683;-64
2021/12/16 12:56:11;;;;;;;16.20;10.97;;;;;;;7.63;100.00;100097.66;5108667;28;20316;-64
2021/12/16 12:58:52;;;;;;;16.07;11.27;;;;;;;7.62;100.00;100101.19;5085135;28;20258;-65
2021/12/16 13:01:18;;;;;;;14.83;10.47;;;;;;;7.61;100.00;100110.00;5111129;28;20234;-64
2021/12/16 13:03:46;;;;;;;14.30;10.17;;;;;;;7.62;100.00;100114.34;5110317;28;20237;-64
2021/12/16 13:06:15;;;;;;;16.30;10.17;;;;;;;7.73;100.00;100112.31;5109873;28;20234;-64
2021/12/16 13:08:45;;;;;;;15.10;9.77;;;;;;;7.77;100.00;100117.44;5110689;28;20225;-64
2021/12/16 13:11:15;;;;;;;15.63;10.77;;;;;;;7.79;100.00;100120.06;5110734;28;20213;-64
2021/12/16 13:14:02;;;;;;;13.83;9.87;;;;;;;7.79;100.00;100120.91;5107417;28;20214;-64
2021/12/16 13:16:54;;;;;;;14.73;10.43;;;;;;;7.81;100.00;100123.50;5084842;28;20244;-64
2021/12/16 13:25:32;;;;;;;16.10;11.03;;;;;;;7.79;99.83;100104.25;5110679;28;20241;-64
2021/12/16 13:28:02;;;;;;;16.20;11.03;;;;;;;7.77;100.00;100112.19;5098697;28;20301;-64
2021/12/16 13:30:38;;;;;;;15.93;10.57;;;;;;;7.78;100.00;100102.53;5097118;28;20219;-64
2021/12/16 13:33:22;;;;;;;16.80;10.47;;;;;;;7.82;100.00;100110.28;5095895;28;20230;-64